Create Custom Reports and Graphics: Custom Report

Anza Map

Map

10 Minute Data

Latest Observation

23 Stations

10 Minute Data | America/Los_Angeles
as of 12/5/20 7:10 AM PST
Station Date Time Temp (°F) Dew Pt (°F) RH (%) Wind Spd (mph) Wind Dir (°) Wind Gust (mph) Wind Gst Dir (°) Daily Max Temp (°F) Daily Min Temp (°F) Daily Max Wind (mph) Max Wind Dir (°)
Thomas Mountain 12/5/20 0700 46.1   2.4 -13.8   5.9 7   2 5.0 NE | 56 5.7 ENE | 61 54.2 46.0 10.5 NE | 40
Red Mountain 12/5/20 0700 54.9   3.9 -11.2   4.2 6   3 6.4 ENE | 62 7.2 ENE | 64 55.4 52.0 9.6 NE | 42
Coyote Canyon 12/5/20 0700 49.2   0.6 -8.3   4.7 9   2 3.7 ENE | 64 5.3 NE | 45 54.8 47.6 15.3 NE | 51
Pinyon 12/5/20 0710 51.3   0.9 -12.4   6.3 6   3 0.7 SSE | 164 3.3 SSE | 168 55.2 49.4 4.6 ENE | 61
Aguanga Barbara Trail 12/5/20 0700 45.2   8.6 -7.0   3.4 11   2 14.1 NE | 36 20.2 NE | 35 47.6 40.0 20.6 NNE | 32
SCE Idyllwild Ridge 12/5/20 0700 44.7   0.2 -10.5   0.5 9   0 3.0 ESE | 120 4.0 SE | 125 48.4 41.5 4.7 SE | 134
SCE Idyllwild Hwy 12/5/20 0700 47.0   12.8 -1.5   5.5 13   14 9.4 S | 184 12.8 S | 189 48.2 43.1 13.0 S | 178
SCE Apple Canyon 12/5/20 0700 51.7   1.4 -12.9   3.5 6   2 4.0 NNE | 23 4.9 NNE | 13 52.3 47.7 6.8 NE | 40
SCE Keen Ridge 12/5/20 0700 50.0   1.4 -10.8   2.5 7   1 4.5 E | 91 5.1 E | 96 51.5 46.2 11.6 SSE | 154
SCE Aguanga 12/5/20 0700 48.8   0.5 -5.3   4.6 10   2 1.1 SSW | 211 3.4 WSW | 258 52.9 48.0 5.6 NW | 312
SCE Butterfield Valley 12/5/20 0710 33.8   6.5 5.2   1.4 29   8 0.6 SSW | 209 3.2 SW | 216 41.6 32.3 5.6 WSW | 255
SCE Anza Rd 12/5/20 0700 27.7   0.2 12.7   3.2 53   7 2.0 ENE | 64 3.4 E | 95 47.5 27.4 6.1 E | 100
SCE Wilson Valley Rd 12/5/20 0700 57.3   4.8 -5.5   5.0 7   4 1.2 ENE | 76 5.6 SE | 130 57.7 50.6 11.2 ESE | 116
SCE Weber Valley 12/5/20 0700 54.1   6.3 -8.0   7.1 7   6 6.1 NE | 43 7.5 NE | 53 55.1 49.3 8.6 NE | 50
SCE Red Mountain Rd 12/5/20 0700 57.7   5.1 -8.8   6.6 6   4 1.9 SE | 134 3.1 ESE | 123 59.5 55.9 6.9 ESE | 115
SCE Brown Canyon 12/5/20 0700 42.8   2.9 -5.3   5.2 13   2 3.5 ESE | 105 5.6 ESE | 106 51.3 40.2 8.3 E | 101
SCE Cedar Ave 12/5/20 0700 41.2   4.2 0.1   5.6 17   9 0.3 ENE | 64 2.0 NE | 53 46.0 37.4 3.9 NNE | 18
SCE Anderson Dr 12/5/20 0700 48.4   4.4 -0.4   4.0 13   5 1.7 NNE | 27 3.8 NE | 49 51.4 46.8 7.2 ENE | 65
SCE Pachea Trail 12/5/20 0700 53.3   0.4 -4.4   4.1 9   2 0.3 N | 358 1.2 NNW | 331 60.2 52.8 6.2 E | 90
SCE Painted Canyon Rd 12/3/20 1140 62.4   6.4 7.4   12.7 11   4 2.4 NNE | 18 5.6 NE | 53 63.5 50.9 12.6 WNW | 294
Oak Grove 12/5/20 0700 45.6   0.6 -8.2   6.7 10   4 7.4 ESE | 115 9.8 ESE | 106 48.1 35.2 13.0 ESE | 113
Chihuahua Valley 12/5/20 0700 41.7   2.1 -13.2   7.1 9   3 5.8 ENE | 57 8.0 NE | 56 48.8 39.7 8.8 NE | 51
Sunshine Summit 12/5/20 0700 37.1   8.3 -6.1   4.6 15   1 3.9 SSE | 161 5.0 S | 178 46.2 36.5 7.0 SE | 142
Max     57.7 12.7 53 14.1 - 20.2 - 60.2 55.9 20.6 -
Avg     46.8 -6.2 12 3.9 - 5.9 - - - - -
Min     27.7 -13.8 6 0.3 - 1.2 - 41.6 27.4 3.9 -